Terminal Aerodrome Forecast
Issued by NWS

Home | Current Version | Previous Version | Text Only | Print | Product List | Glossary On
Versions: 1 2 3 4 5 6 7 8 9 10 11 12 13 14 15 16
000
FTUS43 KPAH 212327
TAFOWB
TAF
KOWB 212327Z 2200/2224 18005KT P6SM FEW060 SCT200
     FM220100 20005KT P6SM SCT200
     FM221200 21005KT P6SM SCT035 BKN200
     FM221500 25009KT P6SM VCSH BKN035 PROB30 2215/2221 4SM -TSRA BR
      BKN025CB=

USA.gov is the U.S. government's official web portal to all federal, state and local government web resources and services.